createdAt,value
2017-07-14T00:02:21.750Z,99.90
2017-07-14T00:04:49.393Z,99.90
2017-07-14T00:07:17.042Z,99.90
2017-07-14T00:09:44.668Z,99.90
2017-07-14T00:12:13.036Z,99.90
2017-07-14T00:14:41.420Z,99.90
2017-07-14T00:17:09.039Z,99.90
2017-07-14T00:19:36.627Z,99.90
2017-07-14T00:22:04.212Z,99.90
2017-07-14T00:24:31.843Z,99.90
2017-07-14T00:26:59.443Z,99.90
2017-07-14T00:29:27.063Z,99.90
2017-07-14T00:31:54.663Z,99.90
2017-07-14T00:34:23.078Z,99.90
2017-07-14T00:36:52.384Z,99.90
2017-07-14T00:39:19.992Z,99.90
2017-07-14T00:41:47.592Z,99.90
2017-07-14T00:44:15.170Z,99.90
2017-07-14T00:46:42.772Z,99.90
2017-07-14T00:49:10.358Z,99.90
2017-07-14T00:51:38.734Z,99.30
2017-07-14T00:54:07.084Z,98.90
2017-07-14T00:56:34.674Z,98.90
2017-07-14T00:59:02.410Z,99.00
2017-07-14T01:01:30.027Z,98.60
2017-07-14T01:03:57.688Z,97.60
2017-07-14T01:06:25.302Z,97.60
2017-07-14T01:08:52.890Z,96.00
2017-07-14T01:11:21.286Z,97.00
2017-07-14T01:13:48.890Z,96.90
2017-07-14T01:16:16.493Z,97.30
2017-07-14T01:18:44.864Z,97.20
2017-07-14T01:21:12.468Z,97.20
2017-07-14T01:23:40.078Z,95.70
2017-07-14T01:26:07.684Z,96.60
2017-07-14T01:28:35.288Z,96.50
2017-07-14T01:31:02.899Z,97.80
2017-07-14T01:33:30.516Z,97.30
2017-07-14T01:35:58.175Z,97.50
2017-07-14T01:38:25.815Z,97.10
2017-07-14T01:40:53.392Z,97.10
2017-07-14T01:43:20.992Z,97.40
2017-07-14T01:45:49.383Z,96.40
2017-07-14T01:48:17.076Z,96.10
2017-07-14T01:50:44.703Z,95.40
2017-07-14T01:53:13.119Z,96.40
2017-07-14T01:55:40.727Z,96.40
2017-07-14T01:58:08.343Z,94.90
2017-07-14T02:00:35.975Z,94.80
2017-07-14T02:03:04.346Z,95.30
2017-07-14T02:05:31.958Z,95.30
2017-07-14T02:07:59.584Z,95.90
2017-07-14T02:10:27.983Z,95.50
2017-07-14T02:12:55.617Z,95.50
2017-07-14T02:15:24.086Z,95.50
2017-07-14T02:17:51.671Z,95.20
2017-07-14T02:20:20.102Z,96.90
2017-07-14T02:22:48.284Z,96.90
2017-07-14T02:25:15.905Z,96.20
2017-07-14T02:27:43.524Z,96.30
2017-07-14T02:30:11.095Z,96.50
2017-07-14T02:32:38.673Z,93.90
2017-07-14T02:35:07.042Z,92.90
2017-07-14T02:37:34.622Z,93.10
2017-07-14T02:40:02.935Z,94.30
2017-07-14T02:42:30.486Z,94.30
2017-07-14T02:44:58.063Z,93.90
2017-07-14T02:47:25.612Z,92.60
2017-07-14T02:49:53.203Z,94.60
2017-07-14T02:52:20.766Z,93.10
2017-07-14T02:54:48.331Z,93.30
2017-07-14T02:57:15.895Z,93.70
2017-07-14T02:59:44.271Z,93.70
2017-07-14T03:02:11.953Z,93.50
2017-07-14T03:04:40.107Z,94.90
2017-07-14T03:07:07.671Z,93.90
2017-07-14T03:09:35.262Z,93.30
2017-07-14T03:12:03.591Z,94.30
2017-07-14T03:14:31.152Z,94.20
2017-07-14T03:16:58.764Z,93.80
2017-07-14T03:19:26.315Z,95.70
2017-07-14T03:21:53.898Z,94.00
2017-07-14T03:24:21.463Z,93.20
2017-07-14T03:26:49.820Z,93.70
2017-07-14T03:29:17.393Z,93.40
2017-07-14T03:31:45.709Z,92.90
2017-07-14T03:34:13.377Z,92.80
2017-07-14T03:36:40.961Z,92.40
2017-07-14T03:39:08.546Z,93.90
2017-07-14T03:41:36.106Z,93.90
2017-07-14T03:44:03.759Z,94.40
2017-07-14T03:46:31.452Z,93.10
2017-07-14T03:48:59.777Z,92.90
2017-07-14T03:51:27.352Z,92.80
2017-07-14T03:53:54.924Z,93.30
2017-07-14T03:56:22.543Z,93.20
2017-07-14T03:58:50.094Z,93.70
2017-07-14T04:01:17.676Z,93.40
2017-07-14T04:03:45.252Z,93.50
2017-07-14T04:06:12.843Z,94.40
2017-07-14T04:08:40.419Z,95.10
2017-07-14T04:11:07.982Z,94.20
2017-07-14T04:13:36.315Z,94.00
2017-07-14T04:16:04.028Z,93.90
2017-07-14T04:18:31.606Z,92.10
2017-07-14T04:20:59.222Z,92.30
2017-07-14T04:23:26.783Z,92.30
2017-07-14T04:25:54.340Z,92.00
2017-07-14T04:28:21.934Z,94.10
2017-07-14T04:30:49.585Z,93.70
2017-07-14T04:33:17.147Z,94.30
2017-07-14T04:35:44.720Z,92.90
2017-07-14T04:38:12.371Z,92.10
2017-07-14T04:40:39.930Z,91.80
2017-07-14T04:43:07.497Z,91.70
2017-07-14T04:45:35.075Z,92.10
2017-07-14T04:48:03.403Z,92.30
2017-07-14T04:50:30.974Z,92.30
2017-07-14T04:52:58.556Z,91.60
2017-07-14T04:55:26.119Z,89.80
2017-07-14T04:57:53.682Z,91.70
2017-07-14T05:00:21.278Z,91.30
2017-07-14T05:02:49.601Z,92.10
2017-07-14T05:05:18.051Z,92.40
2017-07-14T05:07:45.619Z,92.20
2017-07-14T05:10:13.207Z,92.80
2017-07-14T05:12:41.674Z,92.90
2017-07-14T05:15:09.263Z,92.90
2017-07-14T05:17:37.597Z,91.90
2017-07-14T05:20:05.966Z,91.90
2017-07-14T05:22:33.539Z,90.90
2017-07-14T05:25:01.174Z,91.00
2017-07-14T05:27:28.723Z,91.00
2017-07-14T05:29:56.287Z,90.70
2017-07-14T05:32:23.860Z,90.70
2017-07-14T05:34:51.426Z,90.20
2017-07-14T05:37:19.982Z,88.90
2017-07-14T05:39:48.381Z,85.40
2017-07-14T05:42:15.953Z,85.30
2017-07-14T05:44:43.543Z,81.90
2017-07-14T05:47:11.082Z,78.40
2017-07-14T05:49:38.639Z,81.50
2017-07-14T05:52:06.469Z,81.50
2017-07-14T05:54:34.784Z,80.60
2017-07-14T05:57:02.410Z,80.60
2017-07-14T05:59:30.759Z,78.30
2017-07-14T06:01:58.312Z,78.20
2017-07-14T06:04:25.903Z,78.40
2017-07-14T06:06:53.464Z,79.90
2017-07-14T06:09:21.045Z,78.60
2017-07-14T06:11:48.591Z,78.10
2017-07-14T06:14:16.148Z,81.70
2017-07-14T06:16:43.766Z,84.30
2017-07-14T06:19:11.329Z,82.50
2017-07-14T06:21:38.877Z,80.50
2017-07-14T06:24:06.478Z,79.00
2017-07-14T06:26:34.024Z,78.10
2017-07-14T06:29:01.582Z,79.40
2017-07-14T06:31:29.149Z,80.20
2017-07-14T06:33:56.709Z,81.20
2017-07-14T06:36:24.302Z,79.50
2017-07-14T06:38:51.870Z,78.10
2017-07-14T06:41:20.253Z,78.30
2017-07-14T06:43:48.602Z,78.60
2017-07-14T06:46:16.171Z,78.10
2017-07-14T06:48:43.802Z,74.80
2017-07-14T06:51:11.378Z,68.00
2017-07-14T06:53:38.931Z,66.40
2017-07-14T06:56:08.127Z,62.00
2017-07-14T06:58:35.840Z,61.90
2017-07-14T07:01:03.422Z,63.00
2017-07-14T07:03:31.051Z,64.60
2017-07-14T07:05:58.608Z,63.90
2017-07-14T07:08:26.176Z,66.00
2017-07-14T07:10:53.766Z,68.10
2017-07-14T07:13:22.098Z,62.20
2017-07-14T07:15:49.654Z,62.20
2017-07-14T07:18:17.208Z,56.50
2017-07-14T07:20:45.049Z,52.20
2017-07-14T07:23:12.631Z,51.20
2017-07-14T07:25:40.220Z,50.80
2017-07-14T07:28:07.799Z,48.40
2017-07-14T07:30:35.440Z,51.00
2017-07-14T07:33:03.010Z,52.10
2017-07-14T07:35:30.850Z,52.70
2017-07-14T07:37:58.419Z,55.80
2017-07-14T07:40:25.986Z,56.60
2017-07-14T07:42:53.552Z,54.40
2017-07-14T07:45:21.279Z,50.10
2017-07-14T07:47:55.283Z,52.80
2017-07-14T07:50:23.625Z,54.40
2017-07-14T07:52:51.175Z,54.50
2017-07-14T07:55:18.736Z,56.20
2017-07-14T07:57:46.312Z,52.50
2017-07-14T08:00:13.888Z,47.70
2017-07-14T08:02:46.978Z,44.20
2017-07-14T08:05:14.557Z,42.70
2017-07-14T08:07:42.276Z,43.30
2017-07-14T08:10:09.849Z,41.10
2017-07-14T08:12:37.429Z,38.10
2017-07-14T08:15:06.996Z,36.50
2017-07-14T08:17:34.589Z,38.50
2017-07-14T08:20:02.156Z,36.10
2017-07-14T08:22:29.731Z,36.60
2017-07-14T08:24:57.311Z,36.70
2017-07-14T08:27:24.870Z,36.80
2017-07-14T08:29:52.433Z,35.70
2017-07-14T08:32:20.008Z,35.90
2017-07-14T08:34:47.567Z,34.70
2017-07-14T08:37:15.144Z,34.70
2017-07-14T08:39:42.698Z,34.20
2017-07-14T08:42:10.279Z,34.90
2017-07-14T08:44:37.823Z,33.80
2017-07-14T08:47:05.423Z,33.00
2017-07-14T08:49:33.099Z,33.40
2017-07-14T08:52:00.668Z,33.00
2017-07-14T08:54:28.223Z,34.20
2017-07-14T08:56:55.812Z,35.50
2017-07-14T08:59:23.368Z,36.70
2017-07-14T09:01:50.967Z,37.00
2017-07-14T09:04:18.550Z,38.00
2017-07-14T09:06:46.141Z,39.70
2017-07-14T09:09:13.711Z,37.40
2017-07-14T09:11:41.274Z,38.30
2017-07-14T09:14:08.968Z,37.70
2017-07-14T09:16:36.543Z,39.00
2017-07-14T09:19:04.108Z,38.10
2017-07-14T09:21:31.700Z,34.90
2017-07-14T09:24:00.026Z,35.80
2017-07-14T09:26:27.789Z,35.80
2017-07-14T09:28:55.464Z,39.30
2017-07-14T09:31:23.189Z,40.20
2017-07-14T09:33:51.549Z,41.20
2017-07-14T09:36:19.294Z,41.10
2017-07-14T09:38:46.894Z,40.60
2017-07-14T09:41:15.238Z,40.50
2017-07-14T09:43:42.900Z,40.50
2017-07-14T09:46:10.486Z,38.40
2017-07-14T09:48:38.070Z,36.80
2017-07-14T09:51:05.662Z,36.80
2017-07-14T09:53:33.239Z,36.10
2017-07-14T09:56:00.818Z,38.40
2017-07-14T09:58:28.372Z,39.00
2017-07-14T10:00:55.952Z,38.30
2017-07-14T10:03:23.524Z,37.30
2017-07-14T10:05:51.112Z,36.90
2017-07-14T10:08:18.703Z,33.00
2017-07-14T10:10:46.282Z,36.20
2017-07-14T10:13:13.854Z,34.40
2017-07-14T10:15:41.414Z,35.50
2017-07-14T10:18:09.168Z,37.00
2017-07-14T10:20:37.778Z,40.70
2017-07-14T10:23:05.411Z,38.00
2017-07-14T10:25:32.998Z,37.00
2017-07-14T10:28:00.637Z,36.20
2017-07-14T10:30:28.208Z,35.10
2017-07-14T10:32:55.767Z,35.50
2017-07-14T10:35:23.357Z,32.70
2017-07-14T10:37:50.981Z,31.40
2017-07-14T10:40:18.554Z,32.60
2017-07-14T10:42:46.123Z,32.70
2017-07-14T10:45:13.735Z,35.30
2017-07-14T10:47:41.507Z,34.90
2017-07-14T10:50:09.231Z,34.60
2017-07-14T10:52:36.816Z,32.80
2017-07-14T10:55:04.397Z,32.80
2017-07-14T10:57:31.969Z,33.00
2017-07-14T10:59:59.543Z,34.50
2017-07-14T11:02:27.959Z,36.70
2017-07-14T11:04:55.566Z,37.30
2017-07-14T11:07:23.907Z,37.60
2017-07-14T11:09:51.481Z,37.60
2017-07-14T11:12:19.066Z,37.20
2017-07-14T11:14:47.384Z,35.10
2017-07-14T11:17:14.977Z,35.00
2017-07-14T11:19:42.550Z,34.50
2017-07-14T11:22:10.125Z,32.10
2017-07-14T11:24:37.699Z,30.70
2017-07-14T11:27:05.262Z,31.80
2017-07-14T11:29:32.874Z,33.40
2017-07-14T11:32:00.446Z,34.00
2017-07-14T11:34:28.021Z,34.40
2017-07-14T11:36:55.580Z,34.80
2017-07-14T11:39:23.164Z,34.60
2017-07-14T11:41:50.893Z,35.70
2017-07-14T11:44:18.489Z,38.30
2017-07-14T11:46:46.061Z,37.10
2017-07-14T11:49:14.518Z,41.60
2017-07-14T11:51:42.098Z,41.50
2017-07-14T11:54:09.734Z,39.80
2017-07-14T11:56:37.373Z,41.50
2017-07-14T11:59:04.969Z,41.40
2017-07-14T12:01:32.554Z,42.20
2017-07-14T12:04:00.157Z,41.10
2017-07-14T12:06:27.754Z,40.00
2017-07-14T12:08:55.311Z,40.10
2017-07-14T12:11:22.925Z,40.20
2017-07-14T12:13:51.291Z,39.60
2017-07-14T12:16:18.902Z,40.00
2017-07-14T12:18:46.483Z,38.80
2017-07-14T12:21:14.082Z,39.00
2017-07-14T12:23:41.662Z,40.40
2017-07-14T12:26:10.008Z,38.60
2017-07-14T12:28:37.571Z,38.60
2017-07-14T12:31:05.195Z,37.90
2017-07-14T12:33:33.525Z,41.30
2017-07-14T12:36:02.049Z,40.70
2017-07-14T12:38:40.905Z,40.00
2017-07-14T12:41:08.487Z,39.10
2017-07-14T12:43:36.075Z,39.70
2017-07-14T12:46:03.638Z,40.40
2017-07-14T12:48:31.244Z,41.50
2017-07-14T12:50:59.328Z,41.20
2017-07-14T12:53:26.907Z,41.10
2017-07-14T12:55:56.223Z,42.20
2017-07-14T12:58:23.775Z,42.20
2017-07-14T13:00:52.142Z,42.70
2017-07-14T13:03:19.708Z,42.60
2017-07-14T13:05:48.246Z,43.20
2017-07-14T13:08:15.877Z,43.10
2017-07-14T13:10:43.465Z,43.80
2017-07-14T13:13:11.018Z,44.00
2017-07-14T13:15:38.585Z,44.70
2017-07-14T13:18:06.160Z,46.40
2017-07-14T13:20:33.743Z,46.00
2017-07-14T13:23:01.329Z,46.70
2017-07-14T13:25:29.659Z,47.10
2017-07-14T13:27:57.221Z,47.00
2017-07-14T13:30:24.807Z,47.70
2017-07-14T13:32:52.364Z,49.50
2017-07-14T13:35:20.259Z,53.50
2017-07-14T13:37:47.938Z,58.40
2017-07-14T13:40:16.278Z,78.50
2017-07-14T13:42:43.911Z,78.70
2017-07-14T13:45:11.474Z,83.40
2017-07-14T13:47:39.049Z,80.70
2017-07-14T13:50:06.618Z,86.60
2017-07-14T13:52:34.178Z,90.60
2017-07-14T13:55:01.745Z,91.20
2017-07-14T13:57:29.307Z,92.30
2017-07-14T13:59:56.939Z,93.00
2017-07-14T14:02:24.589Z,93.10
2017-07-14T14:04:52.918Z,93.10
2017-07-14T14:07:20.491Z,93.10
2017-07-14T14:09:48.094Z,93.00
2017-07-14T14:12:16.608Z,93.70
2017-07-14T14:14:44.234Z,93.70
2017-07-14T14:17:12.628Z,91.90
2017-07-14T14:19:40.967Z,86.80
2017-07-14T14:22:08.556Z,86.30
2017-07-14T14:24:36.903Z,82.60
2017-07-14T14:27:04.483Z,82.70
2017-07-14T14:29:32.086Z,81.20
2017-07-14T14:31:59.672Z,83.70
2017-07-14T14:34:27.262Z,88.80
2017-07-14T14:36:54.839Z,93.60
2017-07-14T14:39:22.408Z,94.10
2017-07-14T14:41:50.015Z,97.50
2017-07-14T14:44:17.705Z,99.90
2017-07-14T14:46:45.270Z,99.90
2017-07-14T14:49:12.977Z,99.90
2017-07-14T14:51:41.527Z,99.90
2017-07-14T14:54:09.131Z,99.90
2017-07-14T14:56:37.471Z,99.90
2017-07-14T14:59:05.119Z,99.90
2017-07-14T15:01:32.717Z,99.90
2017-07-14T15:04:00.294Z,99.90
2017-07-14T15:06:28.709Z,99.90
2017-07-14T15:08:56.333Z,99.90
2017-07-14T15:11:24.679Z,99.90
2017-07-14T15:13:52.272Z,99.90
2017-07-14T15:16:20.637Z,99.90
2017-07-14T15:18:48.195Z,99.90
2017-07-14T15:21:15.759Z,99.90
2017-07-14T15:23:43.343Z,99.90
2017-07-14T15:26:11.685Z,99.90
2017-07-14T15:28:39.292Z,99.90
2017-07-14T15:31:07.642Z,99.90
2017-07-14T15:33:35.307Z,99.90
2017-07-14T15:36:02.891Z,99.20
2017-07-14T15:41:12.532Z,99.80
2017-07-14T15:43:40.135Z,98.50
2017-07-14T15:46:07.714Z,99.90
2017-07-14T15:48:35.434Z,98.30
2017-07-14T15:51:03.110Z,98.50
2017-07-14T15:53:30.761Z,97.90
2017-07-14T15:55:58.333Z,99.60
2017-07-14T15:58:25.940Z,99.90
2017-07-14T16:00:54.307Z,99.90
2017-07-14T16:03:21.889Z,99.90
2017-07-14T16:05:50.619Z,99.90
2017-07-14T16:08:18.184Z,99.90
2017-07-14T16:10:45.781Z,99.90
2017-07-14T16:13:13.351Z,99.90
2017-07-14T16:15:40.943Z,99.90
2017-07-14T16:18:08.541Z,99.90
2017-07-14T16:20:36.142Z,99.90
2017-07-14T16:23:03.854Z,99.90
2017-07-14T16:25:31.427Z,99.90
2017-07-14T16:27:59.049Z,99.90
2017-07-14T16:30:27.451Z,99.90
2017-07-14T16:32:55.047Z,99.90
2017-07-14T16:35:22.635Z,99.90
2017-07-14T16:37:50.208Z,99.90
2017-07-14T16:40:18.572Z,99.90
2017-07-14T16:42:46.152Z,99.90
2017-07-14T16:45:14.507Z,99.90
2017-07-14T16:47:42.651Z,99.90
2017-07-14T16:50:10.219Z,99.90
2017-07-14T16:52:37.827Z,99.90
2017-07-14T16:55:05.403Z,99.90
2017-07-14T16:57:33.765Z,99.90
2017-07-14T17:00:01.357Z,99.90
2017-07-14T17:02:28.939Z,99.90
2017-07-14T17:04:56.541Z,99.90
2017-07-14T17:07:24.242Z,99.90
2017-07-14T17:09:52.602Z,99.90
2017-07-14T17:12:20.932Z,99.90
2017-07-14T17:14:48.594Z,99.90
2017-07-14T17:17:16.216Z,99.90
2017-07-14T17:19:45.365Z,99.90
2017-07-14T17:22:13.915Z,99.90
2017-07-14T17:24:42.256Z,99.90
2017-07-14T17:27:09.852Z,99.90
2017-07-14T17:29:38.353Z,99.90
2017-07-14T17:32:05.932Z,99.90
2017-07-14T17:34:33.523Z,99.90
2017-07-14T17:37:01.086Z,99.90
2017-07-14T17:39:28.666Z,99.90
2017-07-14T17:41:57.041Z,99.90
2017-07-14T17:44:24.628Z,99.90
2017-07-14T17:46:52.240Z,99.90
2017-07-14T17:49:19.828Z,99.90
2017-07-14T17:51:47.399Z,99.90
2017-07-14T17:54:14.978Z,99.90
2017-07-14T17:56:43.270Z,99.90
2017-07-14T17:59:10.843Z,99.90
2017-07-14T18:01:38.410Z,99.90
2017-07-14T18:04:06.015Z,99.90
2017-07-14T18:06:33.591Z,99.90
2017-07-14T18:09:01.931Z,99.90
2017-07-14T18:11:29.516Z,99.90
2017-07-14T18:13:57.122Z,99.90
2017-07-14T18:16:24.687Z,99.90
2017-07-14T18:18:52.386Z,99.90
2017-07-14T18:21:19.945Z,99.90
2017-07-14T18:23:47.554Z,99.90
2017-07-14T18:26:15.913Z,99.90
2017-07-14T18:28:43.511Z,99.90
2017-07-14T18:31:11.112Z,99.90
2017-07-14T18:33:39.462Z,99.90
2017-07-14T18:36:07.100Z,99.90
2017-07-14T18:38:34.646Z,99.90
2017-07-14T18:41:02.253Z,99.90
2017-07-14T18:43:29.820Z,99.90
2017-07-14T18:45:57.423Z,99.90
2017-07-14T18:48:25.004Z,99.90
2017-07-14T18:50:52.626Z,99.90
2017-07-14T18:53:20.997Z,99.90
2017-07-14T18:55:49.365Z,99.90
2017-07-14T18:58:16.961Z,99.90
2017-07-14T19:00:45.308Z,99.90
2017-07-14T19:03:12.912Z,99.90
2017-07-14T19:05:40.513Z,99.90
2017-07-14T19:08:08.080Z,99.90
2017-07-14T19:10:35.679Z,99.90
2017-07-14T19:13:04.063Z,99.90
2017-07-14T19:15:32.413Z,99.90
2017-07-14T19:18:00.081Z,99.90
2017-07-14T19:20:27.687Z,99.90
2017-07-14T19:22:55.318Z,99.90
2017-07-14T19:25:23.713Z,99.90
2017-07-14T19:27:52.110Z,99.90
2017-07-14T19:30:19.726Z,99.90
2017-07-14T19:32:47.298Z,99.90
2017-07-14T19:35:14.887Z,99.90
2017-07-14T19:37:43.253Z,99.90
2017-07-14T19:40:11.636Z,99.90
2017-07-14T19:42:40.136Z,99.90
2017-07-14T19:45:08.505Z,99.90
2017-07-14T19:47:36.871Z,99.90
2017-07-14T19:50:04.456Z,99.80
2017-07-14T19:52:32.792Z,97.00
2017-07-14T19:55:00.380Z,96.90
2017-07-14T19:57:27.986Z,98.60
2017-07-14T19:59:55.543Z,98.60
2017-07-14T20:02:23.208Z,98.70
2017-07-14T20:04:50.798Z,98.90
2017-07-14T20:07:18.384Z,99.00
2017-07-14T20:09:45.960Z,99.90
2017-07-14T20:12:14.335Z,99.90
2017-07-14T20:14:41.910Z,99.90
2017-07-14T20:17:10.266Z,99.90
2017-07-14T20:19:37.869Z,99.90
2017-07-14T20:22:05.435Z,99.90
2017-07-14T20:24:32.999Z,99.90
2017-07-14T20:27:00.603Z,99.90
2017-07-14T20:29:28.219Z,99.70
2017-07-14T20:31:55.821Z,99.00
2017-07-14T20:34:23.391Z,99.10
2017-07-14T20:36:50.973Z,99.30
2017-07-14T20:39:18.558Z,98.00
2017-07-14T20:41:46.981Z,97.30
2017-07-14T20:44:14.605Z,97.30
2017-07-14T20:46:42.433Z,96.90
2017-07-14T20:49:10.942Z,95.90
2017-07-14T20:51:38.503Z,95.90
2017-07-14T20:54:06.120Z,96.20
2017-07-14T20:56:33.699Z,96.20
2017-07-14T20:59:01.325Z,96.00
2017-07-14T21:01:29.693Z,96.50
2017-07-14T21:03:58.027Z,95.70
2017-07-14T21:06:25.644Z,95.80
2017-07-14T21:08:53.990Z,94.90
2017-07-14T21:11:21.573Z,94.90
2017-07-14T21:13:49.184Z,94.00
2017-07-14T21:16:16.819Z,94.40
2017-07-14T21:18:44.434Z,94.90
2017-07-14T21:21:12.029Z,94.70
2017-07-14T21:23:40.491Z,94.90
2017-07-14T21:26:08.089Z,94.90
2017-07-14T21:28:36.448Z,94.80
2017-07-14T21:31:04.022Z,94.60
2017-07-14T21:33:32.423Z,94.60
2017-07-14T21:36:00.015Z,94.60
2017-07-14T21:38:27.628Z,95.30
2017-07-14T21:40:55.963Z,94.50
2017-07-14T21:43:23.536Z,94.50
2017-07-14T21:45:51.130Z,93.80
2017-07-14T21:48:19.462Z,95.60
2017-07-14T21:50:47.044Z,95.70
2017-07-14T21:53:14.630Z,95.70
2017-07-14T21:55:43.148Z,94.50
2017-07-14T21:58:10.723Z,94.40
2017-07-14T22:00:38.426Z,94.00
2017-07-14T22:03:06.019Z,94.30
2017-07-14T22:05:34.381Z,95.50
2017-07-14T22:08:02.714Z,96.20
2017-07-14T22:10:30.325Z,96.10
2017-07-14T22:12:58.664Z,95.70
2017-07-14T22:15:26.228Z,95.70
2017-07-14T22:17:53.952Z,97.40
2017-07-14T22:20:21.650Z,97.20
2017-07-14T22:22:49.986Z,97.40
2017-07-14T22:25:17.679Z,97.50
2017-07-14T22:27:45.289Z,98.00
2017-07-14T22:30:13.061Z,98.40
2017-07-14T22:32:40.669Z,98.60
2017-07-14T22:35:08.477Z,98.90
2017-07-14T22:37:36.056Z,99.90
2017-07-14T22:40:03.664Z,99.50
2017-07-14T22:42:32.029Z,99.90
2017-07-14T22:44:59.638Z,99.80
2017-07-14T22:47:27.267Z,99.90
2017-07-14T22:49:55.700Z,99.90
2017-07-14T22:52:23.603Z,99.90
2017-07-14T22:54:51.223Z,99.90
2017-07-14T22:57:18.844Z,99.90
2017-07-14T22:59:46.445Z,99.90
2017-07-14T23:02:14.037Z,99.90
2017-07-14T23:04:41.651Z,99.90
2017-07-14T23:07:09.273Z,99.90
2017-07-14T23:09:36.835Z,99.90
2017-07-14T23:12:04.436Z,99.90
2017-07-14T23:14:32.181Z,99.90
2017-07-14T23:17:00.544Z,99.90
2017-07-14T23:19:28.132Z,99.90
2017-07-14T23:21:56.494Z,99.90
2017-07-14T23:24:24.096Z,99.90
2017-07-14T23:27:01.592Z,99.90
2017-07-14T23:29:29.300Z,99.90
2017-07-14T23:31:56.872Z,99.90
2017-07-14T23:34:24.464Z,99.90
2017-07-14T23:36:52.152Z,99.90
2017-07-14T23:39:19.744Z,99.90
2017-07-14T23:41:47.336Z,99.90
2017-07-14T23:44:15.667Z,99.90
2017-07-14T23:46:43.240Z,99.90
2017-07-14T23:49:10.826Z,99.90
2017-07-14T23:51:38.407Z,99.90
2017-07-14T23:54:06.746Z,99.90
2017-07-14T23:56:34.341Z,99.90
2017-07-14T23:59:02.241Z,99.90
